sensor_id;sensor_type;location;lat;lon;timestamp;P1;durP1;ratioP1;P2;durP2;ratioP2
74789;SDS011;63318;52.406;13.416;2022-09-24T00:00:12;8.80;;;5.90;;
74789;SDS011;63318;52.406;13.416;2022-09-24T00:02:40;9.20;;;7.00;;
74789;SDS011;63318;52.406;13.416;2022-09-24T00:05:08;9.90;;;6.50;;
74789;SDS011;63318;52.406;13.416;2022-09-24T00:07:37;11.60;;;6.60;;
74789;SDS011;63318;52.406;13.416;2022-09-24T00:10:05;8.20;;;5.70;;
74789;SDS011;63318;52.406;13.416;2022-09-24T00:12:35;10.00;;;6.10;;
74789;SDS011;63318;52.406;13.416;2022-09-24T00:15:03;9.70;;;6.50;;
74789;SDS011;63318;52.406;13.416;2022-09-24T00:17:32;8.10;;;5.60;;
74789;SDS011;63318;52.406;13.416;2022-09-24T00:20:01;8.10;;;5.80;;
74789;SDS011;63318;52.406;13.416;2022-09-24T00:22:30;8.70;;;6.80;;
74789;SDS011;63318;52.406;13.416;2022-09-24T00:24:58;7.60;;;5.50;;
74789;SDS011;63318;52.406;13.416;2022-09-24T00:27:27;8.60;;;5.60;;
74789;SDS011;63318;52.406;13.416;2022-09-24T00:29:55;8.50;;;6.40;;
74789;SDS011;63318;52.406;13.416;2022-09-24T00:32:23;8.20;;;5.80;;
74789;SDS011;63318;52.406;13.416;2022-09-24T00:34:52;8.30;;;5.60;;
74789;SDS011;63318;52.406;13.416;2022-09-24T00:37:20;8.60;;;5.70;;
74789;SDS011;63318;52.406;13.416;2022-09-24T00:39:48;7.50;;;5.10;;
74789;SDS011;63318;52.406;13.416;2022-09-24T00:42:18;9.90;;;5.00;;
74789;SDS011;63318;52.406;13.416;2022-09-24T00:44:48;7.10;;;5.00;;
74789;SDS011;63318;52.406;13.416;2022-09-24T00:47:20;9.10;;;5.40;;
74789;SDS011;63318;52.406;13.416;2022-09-24T00:50:00;8.20;;;5.50;;
74789;SDS011;63318;52.406;13.416;2022-09-24T00:52:34;8.00;;;5.60;;
74789;SDS011;63318;52.406;13.416;2022-09-24T00:55:07;7.60;;;5.30;;
74789;SDS011;63318;52.406;13.416;2022-09-24T00:57:37;7.80;;;5.10;;
74789;SDS011;63318;52.406;13.416;2022-09-24T01:00:07;10.00;;;5.30;;
74789;SDS011;63318;52.406;13.416;2022-09-24T01:02:37;9.30;;;6.00;;
74789;SDS011;63318;52.406;13.416;2022-09-24T01:05:08;7.50;;;5.40;;
74789;SDS011;63318;52.406;13.416;2022-09-24T01:07:37;9.40;;;6.10;;
74789;SDS011;63318;52.406;13.416;2022-09-24T01:10:05;8.60;;;5.80;;
74789;SDS011;63318;52.406;13.416;2022-09-24T01:12:37;7.60;;;5.70;;
74789;SDS011;63318;52.406;13.416;2022-09-24T01:15:15;8.40;;;5.90;;
74789;SDS011;63318;52.406;13.416;2022-09-24T01:17:51;10.40;;;5.70;;
74789;SDS011;63318;52.406;13.416;2022-09-24T01:20:36;9.10;;;5.80;;
74789;SDS011;63318;52.406;13.416;2022-09-24T01:23:40;12.10;;;5.90;;
74789;SDS011;63318;52.406;13.416;2022-09-24T01:26:21;8.50;;;6.30;;
74789;SDS011;63318;52.406;13.416;2022-09-24T01:31:58;10.50;;;6.00;;
74789;SDS011;63318;52.406;13.416;2022-09-24T01:34:33;9.30;;;5.20;;
74789;SDS011;63318;52.406;13.416;2022-09-24T01:37:06;8.40;;;5.70;;
74789;SDS011;63318;52.406;13.416;2022-09-24T01:39:34;8.60;;;5.90;;
74789;SDS011;63318;52.406;13.416;2022-09-24T01:42:04;9.60;;;5.40;;
74789;SDS011;63318;52.406;13.416;2022-09-24T01:44:34;7.80;;;5.30;;
74789;SDS011;63318;52.406;13.416;2022-09-24T01:47:04;10.00;;;5.80;;
74789;SDS011;63318;52.406;13.416;2022-09-24T01:49:33;9.60;;;5.80;;
74789;SDS011;63318;52.406;13.416;2022-09-24T01:52:02;8.40;;;5.90;;
74789;SDS011;63318;52.406;13.416;2022-09-24T01:54:34;10.20;;;5.80;;
74789;SDS011;63318;52.406;13.416;2022-09-24T01:57:08;9.10;;;6.30;;
74789;SDS011;63318;52.406;13.416;2022-09-24T01:59:42;8.80;;;5.90;;
74789;SDS011;63318;52.406;13.416;2022-09-24T02:02:15;8.10;;;5.50;;
74789;SDS011;63318;52.406;13.416;2022-09-24T02:04:50;8.10;;;5.70;;
74789;SDS011;63318;52.406;13.416;2022-09-24T02:07:23;9.00;;;5.90;;
74789;SDS011;63318;52.406;13.416;2022-09-24T02:09:57;9.40;;;5.80;;
74789;SDS011;63318;52.406;13.416;2022-09-24T02:12:26;10.30;;;6.30;;
74789;SDS011;63318;52.406;13.416;2022-09-24T02:14:59;7.20;;;5.40;;
74789;SDS011;63318;52.406;13.416;2022-09-24T02:17:33;14.60;;;6.20;;
74789;SDS011;63318;52.406;13.416;2022-09-24T02:20:04;7.90;;;5.60;;
74789;SDS011;63318;52.406;13.416;2022-09-24T02:22:37;7.80;;;5.50;;
74789;SDS011;63318;52.406;13.416;2022-09-24T02:25:08;9.50;;;5.40;;
74789;SDS011;63318;52.406;13.416;2022-09-24T02:27:39;8.40;;;5.80;;
74789;SDS011;63318;52.406;13.416;2022-09-24T02:30:09;8.00;;;4.90;;
74789;SDS011;63318;52.406;13.416;2022-09-24T02:32:39;6.80;;;4.70;;
74789;SDS011;63318;52.406;13.416;2022-09-24T02:35:09;9.40;;;5.10;;
74789;SDS011;63318;52.406;13.416;2022-09-24T02:37:39;10.40;;;5.30;;
74789;SDS011;63318;52.406;13.416;2022-09-24T02:40:11;7.90;;;4.90;;
74789;SDS011;63318;52.406;13.416;2022-09-24T02:42:40;7.90;;;5.10;;
74789;SDS011;63318;52.406;13.416;2022-09-24T02:45:09;9.00;;;5.40;;
74789;SDS011;63318;52.406;13.416;2022-09-24T02:47:38;8.20;;;5.40;;
74789;SDS011;63318;52.406;13.416;2022-09-24T02:50:06;9.40;;;5.50;;
74789;SDS011;63318;52.406;13.416;2022-09-24T02:52:35;11.50;;;6.00;;
74789;SDS011;63318;52.406;13.416;2022-09-24T02:55:03;9.40;;;5.00;;
74789;SDS011;63318;52.406;13.416;2022-09-24T02:57:32;9.80;;;6.30;;
74789;SDS011;63318;52.406;13.416;2022-09-24T03:00:00;8.30;;;5.80;;
74789;SDS011;63318;52.406;13.416;2022-09-24T03:02:29;7.60;;;5.10;;
74789;SDS011;63318;52.406;13.416;2022-09-24T03:04:57;7.50;;;5.40;;
74789;SDS011;63318;52.406;13.416;2022-09-24T03:07:25;7.10;;;5.30;;
74789;SDS011;63318;52.406;13.416;2022-09-24T03:09:54;7.30;;;4.80;;
74789;SDS011;63318;52.406;13.416;2022-09-24T03:12:22;8.10;;;5.60;;
74789;SDS011;63318;52.406;13.416;2022-09-24T03:14:50;8.20;;;5.70;;
74789;SDS011;63318;52.406;13.416;2022-09-24T03:17:19;10.10;;;5.90;;
74789;SDS011;63318;52.406;13.416;2022-09-24T03:19:47;9.00;;;4.80;;
74789;SDS011;63318;52.406;13.416;2022-09-24T03:22:15;7.90;;;4.80;;
74789;SDS011;63318;52.406;13.416;2022-09-24T03:24:43;8.80;;;4.80;;
74789;SDS011;63318;52.406;13.416;2022-09-24T03:27:11;6.80;;;4.40;;
74789;SDS011;63318;52.406;13.416;2022-09-24T03:29:40;6.90;;;5.20;;
74789;SDS011;63318;52.406;13.416;2022-09-24T03:32:08;6.50;;;4.60;;
74789;SDS011;63318;52.406;13.416;2022-09-24T03:34:36;7.10;;;5.00;;
74789;SDS011;63318;52.406;13.416;2022-09-24T03:37:04;9.00;;;5.20;;
74789;SDS011;63318;52.406;13.416;2022-09-24T03:39:32;7.80;;;4.80;;
74789;SDS011;63318;52.406;13.416;2022-09-24T03:42:00;7.60;;;5.00;;
74789;SDS011;63318;52.406;13.416;2022-09-24T03:44:29;7.70;;;5.30;;
74789;SDS011;63318;52.406;13.416;2022-09-24T03:46:57;9.50;;;5.60;;
74789;SDS011;63318;52.406;13.416;2022-09-24T03:49:25;8.80;;;5.30;;
74789;SDS011;63318;52.406;13.416;2022-09-24T03:51:53;8.40;;;5.30;;
74789;SDS011;63318;52.406;13.416;2022-09-24T03:54:23;6.50;;;4.70;;
74789;SDS011;63318;52.406;13.416;2022-09-24T03:56:51;8.00;;;5.20;;
74789;SDS011;63318;52.406;13.416;2022-09-24T03:59:19;9.50;;;5.30;;
74789;SDS011;63318;52.406;13.416;2022-09-24T04:01:47;12.40;;;5.50;;
74789;SDS011;63318;52.406;13.416;2022-09-24T04:04:16;7.60;;;5.70;;
74789;SDS011;63318;52.406;13.416;2022-09-24T04:06:44;7.90;;;5.70;;
74789;SDS011;63318;52.406;13.416;2022-09-24T04:09:12;7.40;;;5.60;;
74789;SDS011;63318;52.406;13.416;2022-09-24T04:11:40;7.40;;;5.40;;
74789;SDS011;63318;52.406;13.416;2022-09-24T04:14:08;7.50;;;4.90;;
74789;SDS011;63318;52.406;13.416;2022-09-24T04:16:37;9.10;;;5.00;;
74789;SDS011;63318;52.406;13.416;2022-09-24T04:19:05;7.80;;;4.50;;
74789;SDS011;63318;52.406;13.416;2022-09-24T04:21:33;7.10;;;4.50;;
74789;SDS011;63318;52.406;13.416;2022-09-24T04:24:01;8.10;;;5.10;;
74789;SDS011;63318;52.406;13.416;2022-09-24T04:26:30;8.80;;;4.80;;
74789;SDS011;63318;52.406;13.416;2022-09-24T04:28:58;7.60;;;4.80;;
74789;SDS011;63318;52.406;13.416;2022-09-24T04:31:27;7.20;;;4.90;;
74789;SDS011;63318;52.406;13.416;2022-09-24T04:33:55;8.00;;;5.80;;
74789;SDS011;63318;52.406;13.416;2022-09-24T04:36:25;7.40;;;5.50;;
74789;SDS011;63318;52.406;13.416;2022-09-24T04:38:53;7.50;;;5.20;;
74789;SDS011;63318;52.406;13.416;2022-09-24T04:41:21;8.60;;;5.80;;
74789;SDS011;63318;52.406;13.416;2022-09-24T04:43:50;8.70;;;5.60;;
74789;SDS011;63318;52.406;13.416;2022-09-24T04:46:18;11.90;;;6.70;;
74789;SDS011;63318;52.406;13.416;2022-09-24T04:48:46;8.50;;;5.20;;
74789;SDS011;63318;52.406;13.416;2022-09-24T04:51:14;8.10;;;6.00;;
74789;SDS011;63318;52.406;13.416;2022-09-24T04:53:42;9.00;;;6.40;;
74789;SDS011;63318;52.406;13.416;2022-09-24T04:56:11;8.10;;;5.50;;
74789;SDS011;63318;52.406;13.416;2022-09-24T04:58:39;9.10;;;5.70;;
74789;SDS011;63318;52.406;13.416;2022-09-24T05:01:07;9.50;;;5.50;;
74789;SDS011;63318;52.406;13.416;2022-09-24T05:03:36;12.10;;;5.80;;
74789;SDS011;63318;52.406;13.416;2022-09-24T05:06:04;7.70;;;5.20;;
74789;SDS011;63318;52.406;13.416;2022-09-24T05:08:32;7.90;;;5.50;;
74789;SDS011;63318;52.406;13.416;2022-09-24T05:11:01;8.50;;;5.30;;
74789;SDS011;63318;52.406;13.416;2022-09-24T05:13:29;7.40;;;5.20;;
74789;SDS011;63318;52.406;13.416;2022-09-24T05:15:57;8.00;;;5.30;;
74789;SDS011;63318;52.406;13.416;2022-09-24T05:18:25;7.70;;;5.40;;
74789;SDS011;63318;52.406;13.416;2022-09-24T05:20:54;8.20;;;5.20;;
74789;SDS011;63318;52.406;13.416;2022-09-24T05:23:22;8.90;;;5.80;;
74789;SDS011;63318;52.406;13.416;2022-09-24T05:25:50;7.60;;;5.40;;
74789;SDS011;63318;52.406;13.416;2022-09-24T05:28:19;8.60;;;5.80;;
74789;SDS011;63318;52.406;13.416;2022-09-24T05:30:47;8.20;;;5.40;;
74789;SDS011;63318;52.406;13.416;2022-09-24T05:33:15;7.30;;;5.50;;
74789;SDS011;63318;52.406;13.416;2022-09-24T05:35:43;8.20;;;5.50;;
74789;SDS011;63318;52.406;13.416;2022-09-24T05:38:18;7.50;;;5.60;;
74789;SDS011;63318;52.406;13.416;2022-09-24T05:40:46;9.20;;;5.80;;
74789;SDS011;63318;52.406;13.416;2022-09-24T05:43:14;9.40;;;5.90;;
74789;SDS011;63318;52.406;13.416;2022-09-24T05:45:44;8.70;;;5.70;;
74789;SDS011;63318;52.406;13.416;2022-09-24T05:48:13;8.70;;;6.10;;
74789;SDS011;63318;52.406;13.416;2022-09-24T05:50:41;9.50;;;5.90;;
74789;SDS011;63318;52.406;13.416;2022-09-24T05:53:10;7.10;;;5.10;;
74789;SDS011;63318;52.406;13.416;2022-09-24T05:55:38;11.60;;;6.40;;
74789;SDS011;63318;52.406;13.416;2022-09-24T05:58:09;7.90;;;5.60;;
74789;SDS011;63318;52.406;13.416;2022-09-24T06:00:39;7.30;;;5.20;;
74789;SDS011;63318;52.406;13.416;2022-09-24T06:03:09;8.60;;;6.10;;
74789;SDS011;63318;52.406;13.416;2022-09-24T06:05:41;8.90;;;5.80;;
74789;SDS011;63318;52.406;13.416;2022-09-24T06:08:11;8.10;;;5.40;;
74789;SDS011;63318;52.406;13.416;2022-09-24T06:10:40;7.70;;;5.30;;
74789;SDS011;63318;52.406;13.416;2022-09-24T06:13:08;7.30;;;5.40;;
74789;SDS011;63318;52.406;13.416;2022-09-24T06:15:36;6.90;;;5.10;;
74789;SDS011;63318;52.406;13.416;2022-09-24T06:18:05;9.00;;;5.80;;
74789;SDS011;63318;52.406;13.416;2022-09-24T06:20:34;8.00;;;5.50;;
74789;SDS011;63318;52.406;13.416;2022-09-24T06:23:02;8.10;;;5.70;;
74789;SDS011;63318;52.406;13.416;2022-09-24T06:25:31;8.70;;;5.90;;
74789;SDS011;63318;52.406;13.416;2022-09-24T06:28:00;8.50;;;5.30;;
74789;SDS011;63318;52.406;13.416;2022-09-24T06:30:31;7.70;;;5.60;;
74789;SDS011;63318;52.406;13.416;2022-09-24T06:33:04;10.30;;;5.60;;
74789;SDS011;63318;52.406;13.416;2022-09-24T06:35:34;7.20;;;4.90;;
74789;SDS011;63318;52.406;13.416;2022-09-24T06:38:03;9.50;;;6.50;;
74789;SDS011;63318;52.406;13.416;2022-09-24T06:40:32;9.40;;;5.90;;
74789;SDS011;63318;52.406;13.416;2022-09-24T06:43:00;10.00;;;6.70;;
74789;SDS011;63318;52.406;13.416;2022-09-24T06:45:29;9.60;;;5.80;;
74789;SDS011;63318;52.406;13.416;2022-09-24T06:47:57;11.30;;;6.00;;
74789;SDS011;63318;52.406;13.416;2022-09-24T06:50:27;8.20;;;6.00;;
74789;SDS011;63318;52.406;13.416;2022-09-24T06:52:57;7.30;;;5.20;;
74789;SDS011;63318;52.406;13.416;2022-09-24T06:55:25;7.90;;;5.30;;
74789;SDS011;63318;52.406;13.416;2022-09-24T06:58:01;9.60;;;5.40;;
74789;SDS011;63318;52.406;13.416;2022-09-24T07:00:32;8.30;;;5.50;;
74789;SDS011;63318;52.406;13.416;2022-09-24T07:03:01;8.00;;;5.30;;
74789;SDS011;63318;52.406;13.416;2022-09-24T07:05:30;9.20;;;5.20;;
74789;SDS011;63318;52.406;13.416;2022-09-24T07:07:58;9.60;;;5.40;;
74789;SDS011;63318;52.406;13.416;2022-09-24T07:10:27;7.10;;;5.80;;
74789;SDS011;63318;52.406;13.416;2022-09-24T07:12:55;7.40;;;6.10;;
74789;SDS011;63318;52.406;13.416;2022-09-24T07:15:26;10.50;;;6.20;;
74789;SDS011;63318;52.406;13.416;2022-09-24T07:17:55;7.20;;;6.00;;
74789;SDS011;63318;52.406;13.416;2022-09-24T07:20:23;8.20;;;5.60;;
74789;SDS011;63318;52.406;13.416;2022-09-24T07:22:52;9.80;;;5.30;;
74789;SDS011;63318;52.406;13.416;2022-09-24T07:25:20;8.90;;;5.60;;
74789;SDS011;63318;52.406;13.416;2022-09-24T07:27:48;8.20;;;5.60;;
74789;SDS011;63318;52.406;13.416;2022-09-24T07:30:17;9.00;;;6.00;;
74789;SDS011;63318;52.406;13.416;2022-09-24T07:32:45;10.30;;;6.20;;
74789;SDS011;63318;52.406;13.416;2022-09-24T07:35:13;11.10;;;5.40;;
74789;SDS011;63318;52.406;13.416;2022-09-24T07:37:41;10.00;;;6.00;;
74789;SDS011;63318;52.406;13.416;2022-09-24T07:40:10;8.00;;;5.90;;
74789;SDS011;63318;52.406;13.416;2022-09-24T07:42:44;9.60;;;5.50;;
74789;SDS011;63318;52.406;13.416;2022-09-24T07:45:13;10.20;;;6.30;;
74789;SDS011;63318;52.406;13.416;2022-09-24T07:47:41;7.40;;;5.70;;
74789;SDS011;63318;52.406;13.416;2022-09-24T07:50:09;7.90;;;5.50;;
74789;SDS011;63318;52.406;13.416;2022-09-24T07:52:38;8.90;;;5.80;;
74789;SDS011;63318;52.406;13.416;2022-09-24T07:55:07;7.60;;;5.10;;
74789;SDS011;63318;52.406;13.416;2022-09-24T07:57:35;8.10;;;5.30;;
74789;SDS011;63318;52.406;13.416;2022-09-24T08:00:04;7.80;;;5.00;;
74789;SDS011;63318;52.406;13.416;2022-09-24T08:02:34;8.00;;;5.40;;
74789;SDS011;63318;52.406;13.416;2022-09-24T08:05:02;8.50;;;6.00;;
74789;SDS011;63318;52.406;13.416;2022-09-24T08:07:31;7.70;;;5.10;;
74789;SDS011;63318;52.406;13.416;2022-09-24T08:09:59;7.80;;;5.80;;
74789;SDS011;63318;52.406;13.416;2022-09-24T08:12:28;7.80;;;5.60;;
74789;SDS011;63318;52.406;13.416;2022-09-24T08:14:56;8.80;;;5.30;;
74789;SDS011;63318;52.406;13.416;2022-09-24T08:17:24;9.00;;;5.30;;
74789;SDS011;63318;52.406;13.416;2022-09-24T08:19:52;7.60;;;4.60;;
74789;SDS011;63318;52.406;13.416;2022-09-24T08:22:21;8.80;;;5.40;;
74789;SDS011;63318;52.406;13.416;2022-09-24T08:24:49;8.90;;;5.20;;
74789;SDS011;63318;52.406;13.416;2022-09-24T08:27:17;7.50;;;5.10;;
74789;SDS011;63318;52.406;13.416;2022-09-24T08:29:46;9.10;;;6.20;;
74789;SDS011;63318;52.406;13.416;2022-09-24T08:32:15;9.30;;;5.20;;
74789;SDS011;63318;52.406;13.416;2022-09-24T08:34:43;8.60;;;5.90;;
74789;SDS011;63318;52.406;13.416;2022-09-24T08:37:12;8.40;;;5.70;;
74789;SDS011;63318;52.406;13.416;2022-09-24T08:39:40;8.50;;;5.40;;
74789;SDS011;63318;52.406;13.416;2022-09-24T08:42:12;8.50;;;5.20;;
74789;SDS011;63318;52.406;13.416;2022-09-24T08:44:53;7.20;;;5.00;;
74789;SDS011;63318;52.406;13.416;2022-09-24T08:47:28;7.30;;;5.60;;
74789;SDS011;63318;52.406;13.416;2022-09-24T08:50:05;7.20;;;5.00;;
74789;SDS011;63318;52.406;13.416;2022-09-24T08:52:56;7.50;;;5.10;;
74789;SDS011;63318;52.406;13.416;2022-09-24T08:55:33;7.10;;;5.00;;
74789;SDS011;63318;52.406;13.416;2022-09-24T08:58:10;8.80;;;5.20;;
74789;SDS011;63318;52.406;13.416;2022-09-24T09:00:52;7.10;;;5.10;;
74789;SDS011;63318;52.406;13.416;2022-09-24T09:03:29;8.70;;;5.40;;
74789;SDS011;63318;52.406;13.416;2022-09-24T09:06:10;7.50;;;5.00;;
74789;SDS011;63318;52.406;13.416;2022-09-24T09:08:47;8.50;;;5.80;;
74789;SDS011;63318;52.406;13.416;2022-09-24T09:11:22;7.60;;;5.00;;
74789;SDS011;63318;52.406;13.416;2022-09-24T09:13:55;8.10;;;5.40;;
74789;SDS011;63318;52.406;13.416;2022-09-24T09:16:26;7.70;;;4.90;;
74789;SDS011;63318;52.406;13.416;2022-09-24T09:21:30;7.20;;;4.80;;
74789;SDS011;63318;52.406;13.416;2022-09-24T09:24:04;7.70;;;5.40;;
74789;SDS011;63318;52.406;13.416;2022-09-24T09:26:42;7.50;;;5.30;;
74789;SDS011;63318;52.406;13.416;2022-09-24T09:29:12;7.10;;;5.50;;
74789;SDS011;63318;52.406;13.416;2022-09-24T09:31:43;8.60;;;5.10;;
74789;SDS011;63318;52.406;13.416;2022-09-24T09:34:29;7.60;;;5.70;;
74789;SDS011;63318;52.406;13.416;2022-09-24T09:37:08;7.00;;;5.10;;
74789;SDS011;63318;52.406;13.416;2022-09-24T09:39:50;7.70;;;4.70;;
74789;SDS011;63318;52.406;13.416;2022-09-24T09:42:29;6.30;;;4.40;;
74789;SDS011;63318;52.406;13.416;2022-09-24T09:45:00;8.60;;;4.80;;
74789;SDS011;63318;52.406;13.416;2022-09-24T09:47:41;6.50;;;5.10;;
74789;SDS011;63318;52.406;13.416;2022-09-24T09:50:14;8.10;;;4.90;;
74789;SDS011;63318;52.406;13.416;2022-09-24T09:52:49;7.40;;;4.60;;
74789;SDS011;63318;52.406;13.416;2022-09-24T09:55:21;7.30;;;5.00;;
74789;SDS011;63318;52.406;13.416;2022-09-24T09:57:51;7.40;;;4.60;;
74789;SDS011;63318;52.406;13.416;2022-09-24T10:00:35;8.60;;;5.10;;
74789;SDS011;63318;52.406;13.416;2022-09-24T10:03:03;7.00;;;4.80;;
74789;SDS011;63318;52.406;13.416;2022-09-24T10:05:32;6.80;;;5.00;;
74789;SDS011;63318;52.406;13.416;2022-09-24T10:08:01;9.40;;;4.90;;
74789;SDS011;63318;52.406;13.416;2022-09-24T10:10:29;7.20;;;5.40;;
74789;SDS011;63318;52.406;13.416;2022-09-24T10:13:06;7.70;;;5.00;;
74789;SDS011;63318;52.406;13.416;2022-09-24T10:15:39;7.30;;;5.60;;
74789;SDS011;63318;52.406;13.416;2022-09-24T10:18:16;11.50;;;5.80;;
74789;SDS011;63318;52.406;13.416;2022-09-24T10:20:54;6.20;;;4.90;;
74789;SDS011;63318;52.406;13.416;2022-09-24T10:23:27;7.50;;;4.90;;
74789;SDS011;63318;52.406;13.416;2022-09-24T10:26:01;7.10;;;5.00;;
74789;SDS011;63318;52.406;13.416;2022-09-24T10:28:30;7.10;;;5.80;;
74789;SDS011;63318;52.406;13.416;2022-09-24T10:31:02;6.20;;;4.40;;
74789;SDS011;63318;52.406;13.416;2022-09-24T10:33:36;7.30;;;5.20;;
74789;SDS011;63318;52.406;13.416;2022-09-24T10:36:07;7.00;;;5.30;;
74789;SDS011;63318;52.406;13.416;2022-09-24T10:38:42;7.20;;;4.60;;
74789;SDS011;63318;52.406;13.416;2022-09-24T10:41:15;6.60;;;4.80;;
74789;SDS011;63318;52.406;13.416;2022-09-24T10:43:53;6.20;;;4.40;;
74789;SDS011;63318;52.406;13.416;2022-09-24T10:49:19;7.30;;;4.20;;
74789;SDS011;63318;52.406;13.416;2022-09-24T10:52:01;6.50;;;4.60;;
74789;SDS011;63318;52.406;13.416;2022-09-24T10:54:37;7.30;;;4.60;;
74789;SDS011;63318;52.406;13.416;2022-09-24T10:57:18;9.10;;;4.50;;
74789;SDS011;63318;52.406;13.416;2022-09-24T10:59:58;7.80;;;4.70;;
74789;SDS011;63318;52.406;13.416;2022-09-24T11:05:43;8.00;;;5.10;;
74789;SDS011;63318;52.406;13.416;2022-09-24T11:08:19;7.80;;;5.50;;
74789;SDS011;63318;52.406;13.416;2022-09-24T11:11:01;7.40;;;5.50;;
74789;SDS011;63318;52.406;13.416;2022-09-24T11:13:41;7.10;;;5.00;;
74789;SDS011;63318;52.406;13.416;2022-09-24T11:16:22;9.60;;;5.10;;
74789;SDS011;63318;52.406;13.416;2022-09-24T11:19:02;7.50;;;5.10;;
74789;SDS011;63318;52.406;13.416;2022-09-24T11:21:49;9.20;;;5.10;;
74789;SDS011;63318;52.406;13.416;2022-09-24T11:27:30;7.40;;;4.90;;
74789;SDS011;63318;52.406;13.416;2022-09-24T11:30:11;8.50;;;5.10;;
74789;SDS011;63318;52.406;13.416;2022-09-24T11:32:48;8.60;;;5.10;;
74789;SDS011;63318;52.406;13.416;2022-09-24T11:35:42;6.20;;;4.40;;
74789;SDS011;63318;52.406;13.416;2022-09-24T11:38:22;7.10;;;5.10;;
74789;SDS011;63318;52.406;13.416;2022-09-24T11:41:14;7.50;;;4.90;;
74789;SDS011;63318;52.406;13.416;2022-09-24T11:44:06;7.60;;;4.60;;
74789;SDS011;63318;52.406;13.416;2022-09-24T11:46:53;6.30;;;4.30;;
74789;SDS011;63318;52.406;13.416;2022-09-24T11:49:34;6.70;;;4.40;;
74789;SDS011;63318;52.406;13.416;2022-09-24T11:52:13;6.80;;;4.50;;
74789;SDS011;63318;52.406;13.416;2022-09-24T11:54:51;8.30;;;4.60;;
74789;SDS011;63318;52.406;13.416;2022-09-24T11:57:26;6.80;;;4.30;;
74789;SDS011;63318;52.406;13.416;2022-09-24T11:59:58;7.00;;;4.10;;
74789;SDS011;63318;52.406;13.416;2022-09-24T12:02:29;6.90;;;4.30;;
74789;SDS011;63318;52.406;13.416;2022-09-24T12:05:04;7.60;;;4.50;;
74789;SDS011;63318;52.406;13.416;2022-09-24T12:07:39;6.50;;;4.20;;
74789;SDS011;63318;52.406;13.416;2022-09-24T12:10:24;8.40;;;4.40;;
74789;SDS011;63318;52.406;13.416;2022-09-24T12:12:58;7.10;;;3.90;;
74789;SDS011;63318;52.406;13.416;2022-09-24T12:15:32;7.60;;;4.50;;
74789;SDS011;63318;52.406;13.416;2022-09-24T12:18:10;8.40;;;4.60;;
74789;SDS011;63318;52.406;13.416;2022-09-24T12:20:45;6.80;;;4.10;;
74789;SDS011;63318;52.406;13.416;2022-09-24T12:23:17;7.40;;;4.30;;
74789;SDS011;63318;52.406;13.416;2022-09-24T12:25:49;7.10;;;4.00;;
74789;SDS011;63318;52.406;13.416;2022-09-24T12:28:18;7.70;;;4.20;;
74789;SDS011;63318;52.406;13.416;2022-09-24T12:30:48;7.10;;;4.10;;
74789;SDS011;63318;52.406;13.416;2022-09-24T12:33:24;6.80;;;4.40;;
74789;SDS011;63318;52.406;13.416;2022-09-24T12:36:00;8.10;;;4.40;;
74789;SDS011;63318;52.406;13.416;2022-09-24T12:38:35;6.00;;;4.00;;
74789;SDS011;63318;52.406;13.416;2022-09-24T12:43:57;6.40;;;3.80;;
74789;SDS011;63318;52.406;13.416;2022-09-24T12:46:30;6.60;;;4.10;;
74789;SDS011;63318;52.406;13.416;2022-09-24T12:49:03;5.50;;;3.80;;
74789;SDS011;63318;52.406;13.416;2022-09-24T12:51:45;5.80;;;3.70;;
74789;SDS011;63318;52.406;13.416;2022-09-24T12:54:19;6.50;;;3.80;;
74789;SDS011;63318;52.406;13.416;2022-09-24T12:56:52;5.90;;;4.00;;
74789;SDS011;63318;52.406;13.416;2022-09-24T12:59:32;7.30;;;4.00;;
74789;SDS011;63318;52.406;13.416;2022-09-24T13:02:16;8.00;;;3.60;;
74789;SDS011;63318;52.406;13.416;2022-09-24T13:07:40;5.20;;;3.90;;
74789;SDS011;63318;52.406;13.416;2022-09-24T13:10:16;7.00;;;3.30;;
74789;SDS011;63318;52.406;13.416;2022-09-24T13:12:49;5.70;;;3.70;;
74789;SDS011;63318;52.406;13.416;2022-09-24T13:15:22;6.30;;;4.20;;
74789;SDS011;63318;52.406;13.416;2022-09-24T13:20:43;6.10;;;3.60;;
74789;SDS011;63318;52.406;13.416;2022-09-24T13:26:13;5.60;;;3.50;;
74789;SDS011;63318;52.406;13.416;2022-09-24T13:28:54;5.70;;;3.40;;
74789;SDS011;63318;52.406;13.416;2022-09-24T13:31:24;5.20;;;3.40;;
74789;SDS011;63318;52.406;13.416;2022-09-24T13:33:57;6.30;;;3.30;;
74789;SDS011;63318;52.406;13.416;2022-09-24T13:36:32;5.30;;;3.40;;
74789;SDS011;63318;52.406;13.416;2022-09-24T13:39:06;6.10;;;3.00;;
74789;SDS011;63318;52.406;13.416;2022-09-24T13:41:44;6.30;;;3.30;;
74789;SDS011;63318;52.406;13.416;2022-09-24T13:44:20;8.30;;;3.50;;
74789;SDS011;63318;52.406;13.416;2022-09-24T13:46:55;8.70;;;3.30;;
74789;SDS011;63318;52.406;13.416;2022-09-24T13:49:28;5.40;;;3.70;;
74789;SDS011;63318;52.406;13.416;2022-09-24T13:51:58;6.20;;;3.30;;
74789;SDS011;63318;52.406;13.416;2022-09-24T13:54:40;4.90;;;3.00;;
74789;SDS011;63318;52.406;13.416;2022-09-24T13:57:19;5.70;;;3.30;;
74789;SDS011;63318;52.406;13.416;2022-09-24T13:59:49;5.40;;;2.90;;
74789;SDS011;63318;52.406;13.416;2022-09-24T14:02:38;5.10;;;2.50;;
74789;SDS011;63318;52.406;13.416;2022-09-24T14:05:10;4.80;;;3.10;;
74789;SDS011;63318;52.406;13.416;2022-09-24T14:07:42;4.50;;;2.70;;
74789;SDS011;63318;52.406;13.416;2022-09-24T14:10:20;4.70;;;2.80;;
74789;SDS011;63318;52.406;13.416;2022-09-24T14:12:48;5.00;;;3.00;;
74789;SDS011;63318;52.406;13.416;2022-09-24T14:17:55;4.20;;;2.60;;
74789;SDS011;63318;52.406;13.416;2022-09-24T14:20:25;5.00;;;2.70;;
74789;SDS011;63318;52.406;13.416;2022-09-24T14:22:54;6.80;;;3.30;;
74789;SDS011;63318;52.406;13.416;2022-09-24T14:25:24;6.40;;;3.20;;
74789;SDS011;63318;52.406;13.416;2022-09-24T14:27:56;5.40;;;3.20;;
74789;SDS011;63318;52.406;13.416;2022-09-24T14:32:56;5.20;;;3.10;;
74789;SDS011;63318;52.406;13.416;2022-09-24T14:35:27;5.40;;;3.30;;
74789;SDS011;63318;52.406;13.416;2022-09-24T14:37:59;5.60;;;3.30;;
74789;SDS011;63318;52.406;13.416;2022-09-24T14:40:35;5.10;;;3.50;;
74789;SDS011;63318;52.406;13.416;2022-09-24T14:43:12;6.60;;;3.30;;
74789;SDS011;63318;52.406;13.416;2022-09-24T14:45:43;6.70;;;4.00;;
74789;SDS011;63318;52.406;13.416;2022-09-24T14:48:18;7.30;;;4.80;;
74789;SDS011;63318;52.406;13.416;2022-09-24T14:50:52;8.30;;;5.00;;
74789;SDS011;63318;52.406;13.416;2022-09-24T14:53:22;9.00;;;5.80;;
74789;SDS011;63318;52.406;13.416;2022-09-24T14:55:53;7.20;;;4.70;;
74789;SDS011;63318;52.406;13.416;2022-09-24T14:58:31;7.30;;;4.90;;
74789;SDS011;63318;52.406;13.416;2022-09-24T15:01:05;10.20;;;4.80;;
74789;SDS011;63318;52.406;13.416;2022-09-24T15:03:42;6.50;;;4.30;;
74789;SDS011;63318;52.406;13.416;2022-09-24T15:06:18;6.30;;;3.90;;
74789;SDS011;63318;52.406;13.416;2022-09-24T15:08:52;6.40;;;3.90;;
74789;SDS011;63318;52.406;13.416;2022-09-24T15:11:24;5.70;;;3.70;;
74789;SDS011;63318;52.406;13.416;2022-09-24T15:13:58;7.00;;;3.40;;
74789;SDS011;63318;52.406;13.416;2022-09-24T15:16:29;6.30;;;3.90;;
74789;SDS011;63318;52.406;13.416;2022-09-24T15:19:08;7.90;;;3.90;;
74789;SDS011;63318;52.406;13.416;2022-09-24T15:21:45;7.80;;;4.00;;
74789;SDS011;63318;52.406;13.416;2022-09-24T15:24:14;8.20;;;3.70;;
74789;SDS011;63318;52.406;13.416;2022-09-24T15:26:43;6.60;;;3.90;;
74789;SDS011;63318;52.406;13.416;2022-09-24T15:29:20;8.40;;;4.00;;
74789;SDS011;63318;52.406;13.416;2022-09-24T15:31:49;7.30;;;3.80;;